Time;durP1;ratioP1;P1;durP2;ratioP2;P2;SDS_P1;SDS_P2;PMS_P1;PMS_P2;Temp;Humidity;BMP_temperature;BMP_pressure;BME280_temperature;BME280_humidity;BME280_pressure;Samples;Min_cycle;Max_cycle;Signal;HPM_P1;HPM_P2
2021/07/07 00:00:18;;;;;;;2.60;2.50;;;22.00;48.40;;;;;;4790064;30;20438;-80
2021/07/07 00:02:44;;;;;;;3.17;2.97;;;22.00;48.40;;;;;;4792370;29;21337;-80
2021/07/07 00:05:11;;;;;;;2.90;2.67;;;22.00;48.40;;;;;;4790325;30;20433;-80
2021/07/07 00:07:37;;;;;;;2.87;2.67;;;22.00;48.30;;;;;;4792229;29;20225;-80
2021/07/07 00:10:04;;;;;;;2.50;2.40;;;21.90;48.20;;;;;;4792425;29;20435;-80
2021/07/07 00:12:30;;;;;;;3.50;3.20;;;21.90;48.20;;;;;;4791836;29;20431;-80
2021/07/07 00:14:56;;;;;;;2.97;2.87;;;22.00;48.30;;;;;;4791758;29;20526;-80
2021/07/07 00:17:22;;;;;;;2.80;2.70;;;22.00;48.20;;;;;;4792210;29;20297;-80
2021/07/07 00:19:47;;;;;;;2.70;2.60;;;21.90;48.20;;;;;;4790826;29;20466;-81
2021/07/07 00:22:16;;;;;;;3.07;2.93;;;21.90;48.20;;;;;;4791262;29;20186;-80
2021/07/07 00:24:42;;;;;;;2.70;2.60;;;22.00;48.20;;;;;;4791071;29;20185;-80
2021/07/07 00:27:09;;;;;;;2.47;2.33;;;21.90;48.10;;;;;;4789665;29;20811;-80
2021/07/07 00:29:35;;;;;;;2.70;2.50;;;21.90;48.10;;;;;;4789962;29;20431;-81
2021/07/07 00:32:00;;;;;;;2.70;2.60;;;21.90;48.10;;;;;;4789587;30;20435;-81
2021/07/07 00:34:26;;;;;;;3.10;2.90;;;21.90;48.10;;;;;;4789147;29;20185;-80
2021/07/07 00:36:52;;;;;;;3.37;3.10;;;21.90;48.00;;;;;;4789587;30;20304;-79
2021/07/07 00:39:17;;;;;;;2.77;2.67;;;21.90;48.00;;;;;;4789331;29;20186;-81
2021/07/07 00:41:43;;;;;;;2.93;2.70;;;21.90;47.90;;;;;;4789079;29;20642;-80
2021/07/07 00:44:09;;;;;;;2.80;2.60;;;21.90;48.00;;;;;;4789414;29;20223;-80
2021/07/07 00:46:37;;;;;;;2.60;2.50;;;21.90;48.00;;;;;;4788223;29;20213;-80
2021/07/07 00:49:04;;;;;;;3.03;2.90;;;21.90;48.00;;;;;;4788743;29;20193;-80
2021/07/07 00:51:29;;;;;;;3.10;2.97;;;21.90;47.90;;;;;;4788459;30;20450;-79
2021/07/07 00:53:56;;;;;;;2.40;2.30;;;21.90;47.90;;;;;;4788841;29;20438;-80
2021/07/07 00:56:22;;;;;;;2.67;2.57;;;21.90;47.90;;;;;;4789620;29;20450;-79
2021/07/07 00:58:53;;;;;;;2.90;2.80;;;21.90;47.90;;;;;;4788488;29;20462;-80
2021/07/07 01:01:19;;;;;;;2.90;2.70;;;21.90;47.90;;;;;;4789668;29;20193;-80
2021/07/07 01:03:45;;;;;;;3.47;3.27;;;21.90;47.90;;;;;;4789051;29;20479;-79
2021/07/07 01:06:10;;;;;;;2.87;2.67;;;21.90;47.90;;;;;;4787691;29;20250;-79
2021/07/07 01:08:36;;;;;;;3.07;2.73;;;21.90;47.90;;;;;;4787426;29;20702;-79
2021/07/07 01:11:01;;;;;;;2.80;2.60;;;21.90;47.90;;;;;;4787254;29;20257;-79
2021/07/07 01:13:27;;;;;;;3.43;3.23;;;21.90;47.90;;;;;;4788172;29;20181;-79
2021/07/07 01:15:55;;;;;;;3.17;3.00;;;21.90;47.90;;;;;;4786920;29;20185;-80
2021/07/07 01:18:21;;;;;;;3.10;3.00;;;21.90;47.90;;;;;;4787664;29;20661;-78
2021/07/07 01:20:47;;;;;;;5.30;3.13;;;21.90;47.90;;;;;;4787727;29;20495;-79
2021/07/07 01:23:12;;;;;;;2.87;2.77;;;21.90;47.90;;;;;;4786596;29;20891;-79
2021/07/07 01:25:38;;;;;;;2.87;2.67;;;21.90;47.80;;;;;;4790823;29;20272;-79
2021/07/07 01:28:06;;;;;;;3.27;3.07;;;21.90;47.80;;;;;;4790797;29;20239;-79
2021/07/07 01:30:32;;;;;;;3.00;2.90;;;21.90;47.80;;;;;;4789600;29;20985;-79
2021/07/07 01:32:58;;;;;;;2.93;2.73;;;21.90;47.80;;;;;;4792425;29;20550;-79
2021/07/07 01:35:24;;;;;;;2.73;2.60;;;21.90;47.90;;;;;;4794387;29;20427;-79
2021/07/07 01:37:51;;;;;;;3.20;3.00;;;21.90;47.80;;;;;;4794428;29;20208;-79
2021/07/07 01:40:22;;;;;;;2.83;2.67;;;21.90;47.80;;;;;;4794454;29;20772;-80
2021/07/07 01:42:49;;;;;;;2.60;2.50;;;21.90;47.80;;;;;;4793186;29;20481;-79
2021/07/07 01:45:15;;;;;;;2.93;2.77;;;21.90;47.90;;;;;;4792215;29;20492;-80
2021/07/07 01:47:40;;;;;;;3.23;2.97;;;21.90;47.80;;;;;;4792717;29;20451;-80
2021/07/07 01:50:09;;;;;;;2.83;2.73;;;21.90;47.80;;;;;;4794310;29;20425;-79
2021/07/07 01:52:35;;;;;;;3.00;2.80;;;21.90;47.80;;;;;;4793269;29;20224;-79
2021/07/07 01:55:01;;;;;;;3.20;3.00;;;21.90;47.80;;;;;;4794568;29;20448;-80
2021/07/07 01:57:43;;;;;;;2.60;2.50;;;21.90;47.80;;;;;;4794457;29;20442;-79
2021/07/07 02:00:10;;;;;;;2.90;2.80;;;21.90;47.80;;;;;;4794629;29;20427;-79
2021/07/07 02:02:37;;;;;;;2.90;2.80;;;21.90;47.70;;;;;;4793083;29;20478;-80
2021/07/07 02:05:02;;;;;;;2.57;2.47;;;21.90;47.70;;;;;;4793803;29;20507;-79
2021/07/07 02:07:28;;;;;;;2.80;2.70;;;21.90;47.70;;;;;;4793547;29;20463;-78
2021/07/07 02:09:54;;;;;;;2.67;2.57;;;21.90;47.70;;;;;;4792934;29;20185;-80
2021/07/07 02:12:19;;;;;;;3.20;3.00;;;21.90;47.70;;;;;;4794452;29;20185;-80
2021/07/07 02:14:45;;;;;;;2.60;2.50;;;21.90;47.70;;;;;;4793444;29;20192;-80
2021/07/07 02:17:10;;;;;;;2.70;2.60;;;21.90;47.70;;;;;;4793838;29;20233;-81
2021/07/07 02:19:36;;;;;;;2.47;2.37;;;21.90;47.70;;;;;;4793697;29;20192;-80
2021/07/07 02:22:02;;;;;;;2.40;2.30;;;21.90;47.70;;;;;;4793174;29;20189;-79
2021/07/07 02:24:30;;;;;;;2.60;2.40;;;21.90;47.70;;;;;;4791200;29;20260;-80
2021/07/07 02:26:56;;;;;;;3.60;2.40;;;21.90;47.70;;;;;;4791292;29;20236;-80
2021/07/07 02:29:21;;;;;;;2.80;2.70;;;21.90;47.60;;;;;;4791519;30;20848;-80
2021/07/07 02:31:47;;;;;;;2.80;2.70;;;21.90;47.60;;;;;;4792179;29;20181;-79
2021/07/07 02:34:13;;;;;;;2.70;2.60;;;21.90;47.70;;;;;;4791441;29;20181;-80
2021/07/07 02:36:38;;;;;;;2.87;2.70;;;21.90;47.60;;;;;;4791008;29;20665;-80
2021/07/07 02:39:04;;;;;;;2.73;2.63;;;21.90;47.60;;;;;;4792828;29;20232;-80
2021/07/07 02:41:30;;;;;;;2.30;2.20;;;21.90;47.60;;;;;;4792513;29;20268;-79
2021/07/07 02:43:55;;;;;;;2.90;2.70;;;21.90;47.60;;;;;;4791858;29;20478;-79
2021/07/07 02:46:21;;;;;;;3.00;2.80;;;21.90;47.70;;;;;;4791297;29;20229;-80
2021/07/07 02:48:46;;;;;;;2.87;2.77;;;21.90;48.30;;;;;;4792497;29;20178;-80
2021/07/07 02:51:12;;;;;;;2.70;2.50;;;21.80;47.60;;;;;;4791830;29;20182;-80
2021/07/07 02:53:38;;;;;;;2.93;2.73;;;21.90;47.70;;;;;;4790629;29;20289;-79
2021/07/07 02:56:03;;;;;;;2.60;2.50;;;21.90;47.70;;;;;;4792069;29;20220;-80
2021/07/07 02:58:29;;;;;;;2.77;2.57;;;21.90;47.70;;;;;;4790889;29;20228;-80
2021/07/07 03:00:55;;;;;;;2.50;2.40;;;21.90;47.60;;;;;;4792831;29;20244;-80
2021/07/07 03:03:22;;;;;;;2.73;2.63;;;21.90;47.70;;;;;;4792793;29;20216;-80
2021/07/07 03:05:51;;;;;;;2.53;2.43;;;21.90;47.60;;;;;;4792661;29;20638;-79
2021/07/07 03:08:17;;;;;;;2.80;2.70;;;21.90;47.60;;;;;;4793053;29;20411;-80
2021/07/07 03:10:45;;;;;;;2.90;2.77;;;21.90;47.60;;;;;;4792916;29;20587;-79
2021/07/07 03:13:12;;;;;;;2.80;2.67;;;21.90;47.60;;;;;;4792312;29;20419;-79
2021/07/07 03:15:38;;;;;;;3.00;2.80;;;21.80;47.50;;;;;;4792551;29;20431;-80
2021/07/07 03:18:08;;;;;;;2.60;2.50;;;21.80;47.70;;;;;;4791592;29;20464;-80
2021/07/07 03:20:35;;;;;;;2.70;2.60;;;21.80;47.50;;;;;;4791888;29;20431;-80
2021/07/07 03:23:02;;;;;;;2.90;2.80;;;21.80;47.50;;;;;;4791937;29;20462;-80
2021/07/07 03:25:28;;;;;;;3.57;3.37;;;21.90;47.70;;;;;;4792018;29;20479;-80
2021/07/07 03:27:54;;;;;;;2.70;2.60;;;21.80;47.50;;;;;;4792767;29;20499;-80
2021/07/07 03:30:20;;;;;;;3.00;2.90;;;21.80;47.60;;;;;;4791116;29;20547;-80
2021/07/07 03:32:46;;;;;;;2.90;2.80;;;21.90;47.60;;;;;;4791542;29;20199;-80
2021/07/07 03:35:12;;;;;;;2.63;2.53;;;21.80;47.40;;;;;;4790420;29;20862;-80
2021/07/07 03:37:37;;;;;;;3.00;2.90;;;21.80;47.40;;;;;;4791405;29;20308;-81
2021/07/07 03:40:04;;;;;;;3.10;3.00;;;21.80;47.40;;;;;;4791427;29;20494;-80
2021/07/07 03:42:30;;;;;;;3.03;2.77;;;21.80;47.50;;;;;;4791179;29;20304;-80
2021/07/07 03:44:56;;;;;;;2.70;2.60;;;21.80;47.50;;;;;;4791977;29;20475;-80
2021/07/07 03:47:21;;;;;;;3.17;3.07;;;21.90;47.50;;;;;;4791204;29;20205;-80
2021/07/07 03:49:47;;;;;;;5.53;2.67;;;21.90;47.50;;;;;;4791591;29;20178;-81
2021/07/07 03:52:13;;;;;;;2.70;2.60;;;21.80;47.40;;;;;;4792485;29;20178;-81
2021/07/07 03:54:38;;;;;;;3.10;2.90;;;21.90;47.50;;;;;;4791038;30;20226;-80
2021/07/07 03:57:04;;;;;;;3.43;3.20;;;21.90;47.50;;;;;;4791744;30;20284;-79
2021/07/07 03:59:30;;;;;;;2.73;2.63;;;21.80;47.50;;;;;;4790273;30;20193;-81
2021/07/07 04:01:55;;;;;;;2.80;2.70;;;21.80;47.50;;;;;;4791059;29;20217;-81
2021/07/07 04:04:21;;;;;;;3.37;3.17;;;21.80;47.50;;;;;;4790469;29;20631;-81
2021/07/07 04:06:46;;;;;;;2.63;2.53;;;21.80;47.40;;;;;;4790189;29;20211;-79
2021/07/07 04:09:13;;;;;;;3.07;2.97;;;21.90;47.50;;;;;;4789444;29;20189;-80
2021/07/07 04:11:40;;;;;;;2.90;2.80;;;21.80;47.40;;;;;;4788337;29;20273;-80
2021/07/07 04:14:05;;;;;;;3.20;3.10;;;21.80;47.50;;;;;;4789205;29;20927;-80
2021/07/07 04:16:31;;;;;;;3.10;3.00;;;21.80;47.40;;;;;;4789280;29;20450;-80
2021/07/07 04:18:57;;;;;;;3.40;3.20;;;21.80;47.40;;;;;;4789225;29;20200;-82
2021/07/07 04:21:22;;;;;;;3.17;2.97;;;21.80;47.40;;;;;;4788864;29;20662;-82
2021/07/07 04:23:48;;;;;;;2.73;2.63;;;21.80;47.40;;;;;;4787074;29;20273;-80
2021/07/07 04:26:13;;;;;;;3.10;3.00;;;21.80;47.50;;;;;;4787385;29;20645;-82
2021/07/07 04:28:39;;;;;;;3.27;3.03;;;21.80;47.40;;;;;;4787237;30;20200;-83
2021/07/07 04:31:05;;;;;;;2.87;2.77;;;21.80;47.50;;;;;;4787972;29;20652;-81
2021/07/07 04:33:30;;;;;;;3.70;3.40;;;21.80;47.50;;;;;;4787381;29;20189;-81
2021/07/07 04:35:56;;;;;;;3.27;3.17;;;21.80;47.50;;;;;;4786491;29;20189;-80
2021/07/07 04:38:21;;;;;;;2.87;2.77;;;21.80;47.50;;;;;;4787892;29;20185;-79
2021/07/07 04:40:47;;;;;;;3.20;3.03;;;21.80;47.40;;;;;;4786738;30;20318;-80
2021/07/07 04:43:13;;;;;;;2.80;2.70;;;21.80;47.30;;;;;;4785965;29;20235;-80
2021/07/07 04:45:38;;;;;;;3.07;2.97;;;21.80;47.50;;;;;;4786100;29;20583;-79
2021/07/07 04:48:04;;;;;;;2.83;2.73;;;21.80;47.40;;;;;;4787697;30;20236;-81
2021/07/07 04:50:29;;;;;;;3.00;2.90;;;21.90;47.40;;;;;;4787260;29;20189;-81
2021/07/07 04:52:55;;;;;;;3.27;3.17;;;21.80;47.30;;;;;;4788497;29;20181;-82
2021/07/07 04:55:21;;;;;;;3.10;2.97;;;21.90;47.40;;;;;;4791104;30;20185;-81
2021/07/07 04:57:47;;;;;;;3.27;3.07;;;21.90;47.30;;;;;;4789533;29;20284;-82
2021/07/07 05:00:20;;;;;;;3.33;3.13;;;21.90;47.50;;;;;;4792871;29;20205;-82
2021/07/07 05:02:47;;;;;;;3.17;3.07;;;21.90;47.70;;;;;;4793758;29;20679;-83
2021/07/07 05:05:14;;;;;;;3.17;2.97;;;21.90;47.60;;;;;;4793431;29;20419;-83
2021/07/07 05:07:41;;;;;;;3.00;2.80;;;21.90;47.50;;;;;;4792471;29;20507;-81
2021/07/07 05:10:11;;;;;;;3.20;3.00;;;21.80;47.40;;;;;;4793592;29;20423;-81
2021/07/07 05:12:37;;;;;;;3.10;2.90;;;21.90;47.50;;;;;;4792146;29;20431;-79
2021/07/07 05:15:05;;;;;;;3.03;2.90;;;21.90;47.40;;;;;;4793739;29;20434;-80
2021/07/07 05:17:31;;;;;;;3.23;3.03;;;21.90;47.40;;;;;;4793272;29;20451;-80
2021/07/07 05:19:58;;;;;;;3.20;3.00;;;21.90;47.40;;;;;;4793231;29;20522;-82
2021/07/07 05:22:24;;;;;;;3.20;3.00;;;21.90;47.40;;;;;;4793785;29;20931;-83
2021/07/07 05:24:50;;;;;;;2.73;2.63;;;21.90;47.40;;;;;;4793190;29;20506;-84
2021/07/07 05:27:16;;;;;;;3.10;3.00;;;21.90;47.40;;;;;;4791627;29;20458;-82
2021/07/07 05:29:43;;;;;;;3.10;2.90;;;21.80;47.30;;;;;;4791962;30;20898;-81
2021/07/07 05:32:09;;;;;;;3.27;3.07;;;21.90;47.30;;;;;;4791521;30;20181;-82
2021/07/07 05:34:37;;;;;;;3.00;2.80;;;21.90;47.40;;;;;;4791389;29;20495;-81
2021/07/07 05:37:03;;;;;;;3.70;3.40;;;21.90;47.50;;;;;;4792496;29;20442;-80
2021/07/07 05:39:28;;;;;;;3.37;3.07;;;21.90;47.60;;;;;;4792717;29;20506;-80
2021/07/07 05:41:54;;;;;;;3.90;3.33;;;21.90;47.70;;;;;;4791313;29;20181;-81
2021/07/07 05:44:20;;;;;;;3.97;2.90;;;21.90;47.70;;;;;;4792600;29;20197;-79
2021/07/07 05:46:45;;;;;;;3.47;3.10;;;21.90;47.80;;;;;;4792720;30;20486;-80
2021/07/07 05:49:11;;;;;;;5.50;2.90;;;21.90;47.90;;;;;;4792020;29;20185;-81
2021/07/07 05:51:37;;;;;;;3.80;3.60;;;21.90;48.00;;;;;;4792426;29;20207;-82
2021/07/07 05:54:03;;;;;;;3.00;2.87;;;21.90;48.00;;;;;;4792446;29;20435;-84
2021/07/07 05:56:28;;;;;;;3.30;3.10;;;21.90;48.20;;;;;;4792657;29;20766;-82
2021/07/07 05:58:54;;;;;;;3.80;3.00;;;21.90;48.20;;;;;;4793353;29;20442;-83
2021/07/07 06:01:20;;;;;;;3.50;3.20;;;21.90;48.20;;;;;;4792666;29;20216;-84
2021/07/07 06:03:45;;;;;;;4.57;3.07;;;21.90;48.20;;;;;;4791295;29;20321;-83
2021/07/07 06:06:11;;;;;;;3.67;3.47;;;21.90;47.90;;;;;;4791801;29;20240;-84
2021/07/07 06:08:36;;;;;;;3.70;2.70;;;21.90;48.00;;;;;;4793389;29;20634;-83
2021/07/07 06:11:02;;;;;;;3.20;3.00;;;21.90;47.90;;;;;;4790921;29;20194;-83
2021/07/07 06:13:28;;;;;;;3.13;2.80;;;21.90;47.80;;;;;;4793827;29;20197;-84
2021/07/07 06:15:53;;;;;;;3.33;3.13;;;21.90;47.80;;;;;;4792493;30;20272;-82
2021/07/07 06:18:24;;;;;;;3.27;3.03;;;21.90;48.50;;;;;;4790763;29;20269;-83
2021/07/07 06:20:50;;;;;;;3.00;2.67;;;21.90;47.70;;;;;;4791693;29;20257;-83
2021/07/07 06:23:16;;;;;;;3.20;3.00;;;21.90;47.70;;;;;;4792450;29;20533;-86
2021/07/07 06:26:04;;;;;;;3.40;3.20;;;21.80;47.60;;;;;;4791839;29;20190;-82
2021/07/07 06:28:30;;;;;;;4.93;3.30;;;21.80;47.50;;;;;;4783731;30;20428;-84
2021/07/07 06:30:56;;;;;;;3.63;3.33;;;21.80;47.50;;;;;;4789782;30;20427;-84
2021/07/07 06:33:22;;;;;;;3.43;3.33;;;21.80;47.50;;;;;;4789652;29;20201;-85
2021/07/07 06:35:47;;;;;;;2.93;2.73;;;21.80;47.50;;;;;;4789984;29;20277;-85
2021/07/07 06:38:13;;;;;;;3.27;3.17;;;21.80;47.50;;;;;;4790644;29;20338;-85
2021/07/07 06:40:38;;;;;;;5.43;3.60;;;21.80;47.40;;;;;;4791760;29;20193;-84
2021/07/07 06:43:04;;;;;;;3.30;3.10;;;21.80;47.40;;;;;;4790941;29;20681;-85
2021/07/07 06:45:36;;;;;;;2.90;2.80;;;21.80;47.40;;;;;;4791749;29;20205;-83
2021/07/07 06:48:02;;;;;;;3.60;3.03;;;21.80;47.30;;;;;;4807572;29;20446;-83
2021/07/07 06:50:30;;;;;;;3.93;3.37;;;21.80;47.40;;;;;;4807411;29;20783;-88
2021/07/07 06:52:56;;;;;;;7.50;3.63;;;21.80;47.30;;;;;;4808074;29;20215;-86
2021/07/07 06:55:21;;;;;;;4.80;3.83;;;21.80;47.20;;;;;;4809462;29;20430;-83
2021/07/07 06:57:47;;;;;;;4.80;3.30;;;21.80;47.20;;;;;;4808460;29;20752;-83
2021/07/07 07:00:15;;;;;;;4.40;3.80;;;21.80;47.10;;;;;;4810281;29;20176;-83
2021/07/07 07:02:42;;;;;;;4.07;3.67;;;21.80;47.10;;;;;;4804959;29;20209;-83
2021/07/07 07:05:09;;;;;;;4.60;3.60;;;21.80;47.10;;;;;;4792279;29;20423;-82
2021/07/07 07:07:36;;;;;;;9.00;4.60;;;21.80;47.10;;;;;;4792462;29;20435;-83
2021/07/07 07:10:03;;;;;;;6.07;4.27;;;21.80;47.10;;;;;;4789254;29;20923;-85
2021/07/07 07:12:29;;;;;;;5.70;4.73;;;21.80;47.10;;;;;;4788969;30;20438;-82
2021/07/07 07:14:58;;;;;;;6.57;3.63;;;21.90;47.20;;;;;;4790974;30;20423;-85
2021/07/07 07:17:25;;;;;;;10.53;4.10;;;21.80;47.00;;;;;;4788670;29;20210;-85
2021/07/07 07:19:51;;;;;;;3.70;3.40;;;21.80;47.00;;;;;;4789060;29;20430;-83
2021/07/07 07:22:17;;;;;;;5.83;3.40;;;21.80;47.00;;;;;;4788879;29;20486;-83
2021/07/07 07:24:44;;;;;;;4.83;4.43;;;21.80;47.00;;;;;;4788988;30;20185;-82
2021/07/07 07:27:10;;;;;;;6.23;3.60;;;21.80;47.00;;;;;;4808105;29;20461;-84
2021/07/07 07:29:37;;;;;;;6.37;3.70;;;21.80;47.00;;;;;;4808353;29;20446;-85
2021/07/07 07:32:04;;;;;;;3.80;3.47;;;21.90;47.00;;;;;;4808181;29;20188;-82
2021/07/07 07:34:29;;;;;;;3.77;3.47;;;21.80;46.90;;;;;;4806510;29;20462;-80
2021/07/07 07:37:00;;;;;;;3.67;3.40;;;21.80;46.80;;;;;;4806375;29;20990;-83
2021/07/07 07:39:27;;;;;;;4.83;4.43;;;21.80;46.90;;;;;;4791677;29;20193;-80
2021/07/07 07:41:53;;;;;;;3.40;3.20;;;21.90;46.90;;;;;;4789874;29;20415;-81
2021/07/07 07:44:18;;;;;;;4.67;3.77;;;21.80;46.80;;;;;;4789713;29;20535;-81
2021/07/07 07:46:45;;;;;;;3.43;3.10;;;21.90;46.90;;;;;;4787635;30;20216;-82
2021/07/07 07:49:13;;;;;;;3.83;3.50;;;21.90;46.90;;;;;;4789693;29;20250;-82
2021/07/07 07:51:39;;;;;;;4.47;3.27;;;21.90;46.80;;;;;;4789471;29;20423;-83
2021/07/07 07:54:04;;;;;;;3.07;2.97;;;21.90;46.80;;;;;;4788374;29;20435;-80
2021/07/07 07:56:30;;;;;;;6.60;3.37;;;21.80;46.70;;;;;;4789101;29;20459;-81
2021/07/07 07:58:56;;;;;;;3.47;3.17;;;21.90;46.70;;;;;;4788031;30;20186;-81
2021/07/07 08:01:24;;;;;;;4.33;3.73;;;21.90;46.70;;;;;;4800413;29;20198;-83
2021/07/07 08:03:50;;;;;;;3.93;3.70;;;21.80;46.60;;;;;;4778232;30;20313;-84
2021/07/07 08:06:15;;;;;;;3.87;3.43;;;21.80;46.60;;;;;;4788206;30;20877;-82
2021/07/07 08:08:41;;;;;;;4.00;3.73;;;21.90;46.60;;;;;;4789374;30;20208;-83
2021/07/07 08:11:06;;;;;;;3.03;2.93;;;21.80;46.60;;;;;;4789578;29;20284;-82
2021/07/07 08:13:32;;;;;;;4.07;3.77;;;21.80;46.50;;;;;;4790699;29;20223;-83
2021/07/07 08:15:58;;;;;;;5.20;3.60;;;21.90;47.30;;;;;;4789704;29;20613;-81
2021/07/07 08:18:24;;;;;;;3.70;3.50;;;21.90;46.60;;;;;;4790866;29;20872;-81
2021/07/07 08:20:49;;;;;;;3.30;3.10;;;21.80;46.50;;;;;;4791099;29;20272;-82
2021/07/07 08:23:15;;;;;;;3.60;3.30;;;21.90;46.50;;;;;;4791025;29;20228;-81
2021/07/07 08:25:41;;;;;;;3.17;3.00;;;21.90;46.50;;;;;;4792874;30;20200;-81
2021/07/07 08:28:07;;;;;;;3.80;3.43;;;21.90;46.50;;;;;;4792105;30;20186;-81
2021/07/07 08:30:33;;;;;;;3.53;3.33;;;21.90;46.50;;;;;;4792703;29;20419;-82
2021/07/07 08:32:58;;;;;;;3.53;3.10;;;21.90;46.50;;;;;;4790606;29;20197;-79
2021/07/07 08:35:24;;;;;;;4.20;2.80;;;21.80;46.40;;;;;;4790740;29;20218;-83
2021/07/07 08:37:49;;;;;;;2.80;2.70;;;21.80;46.40;;;;;;4792221;29;20205;-82
2021/07/07 08:40:16;;;;;;;3.30;3.10;;;21.80;46.40;;;;;;4793801;30;20253;-79
2021/07/07 08:42:43;;;;;;;3.80;3.50;;;21.90;46.50;;;;;;4791781;29;20244;-82
2021/07/07 08:45:11;;;;;;;3.70;3.43;;;21.90;46.50;;;;;;4792437;29;21164;-82
2021/07/07 08:47:40;;;;;;;3.10;2.90;;;21.80;46.40;;;;;;4792834;29;20447;-80
2021/07/07 08:50:11;;;;;;;3.17;3.03;;;21.80;46.40;;;;;;4792766;29;20426;-81
2021/07/07 08:52:38;;;;;;;3.97;3.50;;;21.90;46.40;;;;;;4791300;29;20530;-78
2021/07/07 08:55:12;;;;;;;3.13;2.93;;;21.90;46.40;;;;;;4791847;29;20450;-82
2021/07/07 08:57:42;;;;;;;3.80;3.50;;;21.80;46.40;;;;;;4793051;29;20447;-81
2021/07/07 09:00:31;;;;;;;3.30;3.10;;;21.80;46.30;;;;;;4792736;29;20419;-83
2021/07/07 09:03:17;;;;;;;3.53;3.33;;;21.80;46.30;;;;;;4792919;29;20471;-82
2021/07/07 09:06:02;;;;;;;3.50;3.30;;;21.90;46.40;;;;;;4792809;30;20561;-80
2021/07/07 09:08:36;;;;;;;3.10;2.80;;;21.80;46.30;;;;;;4792000;29;20427;-80
2021/07/07 09:11:22;;;;;;;2.57;2.37;;;21.80;47.10;;;;;;4791202;29;21019;-79
2021/07/07 09:14:07;;;;;;;2.90;2.80;;;21.90;46.40;;;;;;4790923;29;20439;-80
2021/07/07 09:16:55;;;;;;;3.13;2.93;;;21.90;46.40;;;;;;4791750;29;20455;-81
2021/07/07 09:19:26;;;;;;;2.50;2.40;;;21.80;46.30;;;;;;4792719;29;20434;-81
2021/07/07 09:21:55;;;;;;;2.63;2.53;;;21.80;46.30;;;;;;4793024;30;20928;-82
2021/07/07 09:24:25;;;;;;;2.97;2.77;;;21.80;46.30;;;;;;4791651;29;20536;-82
2021/07/07 09:26:59;;;;;;;2.97;2.77;;;21.90;46.30;;;;;;4792007;29;20530;-82
2021/07/07 09:29:38;;;;;;;3.50;2.97;;;21.90;46.40;;;;;;4790100;29;20717;-83
2021/07/07 09:32:31;;;;;;;2.57;2.47;;;21.80;46.30;;;;;;4791948;30;20427;-83
2021/07/07 09:35:03;;;;;;;2.93;2.67;;;21.80;46.30;;;;;;4790961;29;20426;-82
2021/07/07 09:37:37;;;;;;;3.03;2.83;;;21.80;46.30;;;;;;4789815;30;20538;-82
2021/07/07 09:40:05;;;;;;;4.47;2.93;;;21.80;46.30;;;;;;4790265;29;20527;-82
2021/07/07 09:42:37;;;;;;;3.07;2.87;;;21.80;46.30;;;;;;4789635;30;20538;-80
2021/07/07 09:45:04;;;;;;;2.80;2.70;;;21.80;46.30;;;;;;4791887;29;20447;-84
2021/07/07 09:47:30;;;;;;;2.97;2.70;;;21.80;46.30;;;;;;4792305;29;20451;-81
2021/07/07 09:49:57;;;;;;;2.60;2.40;;;21.80;46.30;;;;;;4794396;29;20437;-82
2021/07/07 09:52:25;;;;;;;2.60;2.50;;;21.80;46.30;;;;;;4793633;29;20241;-81
2021/07/07 09:54:51;;;;;;;2.57;2.37;;;21.80;46.30;;;;;;4794818;29;20415;-81
2021/07/07 09:57:18;;;;;;;3.90;2.80;;;21.70;46.20;;;;;;4793376;29;20461;-82
2021/07/07 09:59:45;;;;;;;2.57;2.37;;;21.70;46.10;;;;;;4792309;29;20434;-82
2021/07/07 10:02:11;;;;;;;2.90;2.70;;;21.80;46.30;;;;;;4794048;29;20421;-83
2021/07/07 10:04:39;;;;;;;2.57;2.47;;;21.70;46.10;;;;;;4795794;29;20502;-82
2021/07/07 10:07:09;;;;;;;3.00;2.80;;;21.70;46.00;;;;;;4796305;29;20243;-84
2021/07/07 10:09:38;;;;;;;2.20;2.10;;;21.70;46.10;;;;;;4797315;29;20423;-82
2021/07/07 10:12:04;;;;;;;2.80;2.43;;;21.70;46.10;;;;;;4796128;29;20419;-82
2021/07/07 10:14:30;;;;;;;2.40;2.30;;;21.80;46.10;;;;;;4795828;29;20431;-82
2021/07/07 10:16:56;;;;;;;3.20;3.00;;;21.70;46.00;;;;;;4794592;29;20462;-81
2021/07/07 10:19:22;;;;;;;2.57;2.40;;;21.70;46.00;;;;;;4795304;29;20426;-81
2021/07/07 10:21:49;;;;;;;2.90;2.70;;;21.70;46.00;;;;;;4795624;30;20438;-81
2021/07/07 10:24:21;;;;;;;2.37;2.17;;;21.70;46.00;;;;;;4794154;29;20892;-82
2021/07/07 10:26:48;;;;;;;2.70;2.50;;;21.70;46.00;;;;;;4792880;29;20490;-82
2021/07/07 10:29:14;;;;;;;2.20;2.10;;;21.70;46.00;;;;;;4794415;29;20506;-82
2021/07/07 10:32:01;;;;;;;3.10;2.90;;;21.70;45.90;;;;;;4794104;29;20419;-81
2021/07/07 10:34:29;;;;;;;2.20;2.10;;;21.70;45.90;;;;;;4791783;29;20868;-80
2021/07/07 10:36:58;;;;;;;2.60;2.50;;;21.70;45.90;;;;;;4793778;29;20618;-83
2021/07/07 10:39:25;;;;;;;2.43;2.33;;;21.70;45.90;;;;;;4810760;29;20438;-80
2021/07/07 10:41:53;;;;;;;5.20;2.60;;;21.70;45.90;;;;;;4841149;29;20980;-81
2021/07/07 10:44:22;;;;;;;4.77;2.70;;;21.70;46.00;;;;;;4809898;29;20993;-79
2021/07/07 10:46:53;;;;;;;2.67;2.40;;;21.80;46.00;;;;;;4840080;29;20469;-79
2021/07/07 10:49:23;;;;;;;2.80;2.60;;;21.80;46.00;;;;;;4809562;29;20426;-80
2021/07/07 10:51:51;;;;;;;3.03;2.83;;;21.80;46.00;;;;;;4809690;29;20579;-79
2021/07/07 10:54:27;;;;;;;2.70;2.60;;;21.80;45.90;;;;;;4810984;29;20426;-78
2021/07/07 10:56:54;;;;;;;3.30;3.10;;;21.80;46.00;;;;;;4808972;29;20564;-80
2021/07/07 10:59:45;;;;;;;2.87;2.70;;;21.80;45.90;;;;;;4808262;29;20437;-80
2021/07/07 11:02:21;;;;;;;2.50;2.30;;;21.80;45.90;;;;;;4808565;29;20925;-79
2021/07/07 11:04:56;;;;;;;4.80;3.33;;;21.80;45.90;;;;;;4808765;29;20422;-80
2021/07/07 11:07:33;;;;;;;2.90;2.70;;;21.80;45.90;;;;;;4808863;29;20513;-81
2021/07/07 11:10:12;;;;;;;2.90;2.70;;;21.80;45.90;;;;;;4809344;29;20921;-81
2021/07/07 11:12:41;;;;;;;2.93;2.73;;;21.80;45.90;;;;;;4809346;29;20395;-80
2021/07/07 11:18:47;;;;;;;2.53;2.30;;;21.90;46.00;;;;;;4750514;30;20441;-81
2021/07/07 11:21:30;;;;;;;3.20;3.00;;;21.90;46.00;;;;;;4780035;29;20459;-81
2021/07/07 11:26:55;;;;;;;3.30;3.10;;;21.90;46.00;;;;;;4785245;29;21167;-81
2021/07/07 11:29:21;;;;;;;2.70;2.50;;;21.80;46.00;;;;;;4793728;29;20455;-83
2021/07/07 11:31:48;;;;;;;2.33;2.23;;;21.90;46.00;;;;;;4792528;29;20423;-82
2021/07/07 11:34:14;;;;;;;3.57;3.03;;;21.80;46.00;;;;;;4792796;29;20431;-83
2021/07/07 11:36:39;;;;;;;2.90;2.70;;;21.80;46.00;;;;;;4791724;29;20442;-84
2021/07/07 11:39:06;;;;;;;2.80;2.70;;;21.80;46.00;;;;;;4791799;30;20445;-80
2021/07/07 11:41:32;;;;;;;2.97;2.57;;;21.80;46.00;;;;;;4792286;29;20193;-82
2021/07/07 11:43:58;;;;;;;2.60;2.40;;;21.80;46.00;;;;;;4791067;30;20462;-83
2021/07/07 11:46:30;;;;;;;3.07;2.87;;;21.80;46.00;;;;;;4791869;29;20221;-82
2021/07/07 11:49:10;;;;;;;3.50;2.60;;;21.80;46.00;;;;;;4791408;29;20411;-81
2021/07/07 11:51:38;;;;;;;2.50;2.37;;;21.80;46.00;;;;;;4791335;29;20415;-82
2021/07/07 11:54:03;;;;;;;2.60;2.50;;;21.70;45.90;;;;;;4792300;29;20431;-82
2021/07/07 11:56:35;;;;;;;2.60;2.50;;;21.80;45.90;;;;;;4791680;29;20441;-82
2021/07/07 11:59:04;;;;;;;2.73;2.60;;;21.70;45.80;;;;;;4791471;29;20181;-83
2021/07/07 12:01:32;;;;;;;2.60;2.50;;;21.80;45.90;;;;;;4792826;30;20438;-84
2021/07/07 12:04:06;;;;;;;2.97;2.77;;;21.70;45.80;;;;;;4793392;29;20463;-83
2021/07/07 12:06:43;;;;;;;2.97;2.87;;;21.70;45.80;;;;;;4792086;29;20450;-83
2021/07/07 12:09:25;;;;;;;2.90;2.70;;;21.70;45.80;;;;;;4791711;29;20454;-83
2021/07/07 12:11:57;;;;;;;3.47;3.30;;;21.70;45.80;;;;;;4791605;29;20410;-83
2021/07/07 12:14:25;;;;;;;2.83;2.73;;;21.80;45.80;;;;;;4790260;30;21189;-87
2021/07/07 12:16:54;;;;;;;2.60;2.50;;;21.70;45.70;;;;;;4790650;30;20458;-83
2021/07/07 12:19:20;;;;;;;2.87;2.77;;;21.70;45.70;;;;;;4789831;30;20446;-83
2021/07/07 12:21:48;;;;;;;2.50;2.30;;;21.70;45.70;;;;;;4790114;29;20427;-84
2021/07/07 12:24:35;;;;;;;2.80;2.70;;;21.70;45.70;;;;;;4791226;29;20252;-83
2021/07/07 12:27:09;;;;;;;3.33;3.03;;;21.70;45.70;;;;;;4790775;30;20962;-84
2021/07/07 12:29:41;;;;;;;2.80;2.60;;;21.70;45.70;;;;;;4790191;30;20873;-84
2021/07/07 12:32:12;;;;;;;2.63;2.43;;;21.70;45.70;;;;;;4789644;29;20454;-84
2021/07/07 12:34:43;;;;;;;2.57;2.37;;;21.70;45.60;;;;;;4788187;30;20518;-83
2021/07/07 12:37:13;;;;;;;2.50;2.40;;;21.70;45.60;;;;;;4789235;30;20455;-82
2021/07/07 12:39:50;;;;;;;2.60;2.50;;;21.70;45.60;;;;;;4790829;29;20758;-83
2021/07/07 12:42:27;;;;;;;2.30;2.20;;;21.70;45.60;;;;;;4790171;29;20429;-83
2021/07/07 12:45:06;;;;;;;2.37;2.27;;;21.70;45.60;;;;;;4789961;29;20443;-81
2021/07/07 12:47:32;;;;;;;2.80;2.70;;;21.70;45.50;;;;;;4789671;29;20443;-85
2021/07/07 12:49:58;;;;;;;2.60;2.50;;;21.70;45.60;;;;;;4784461;30;20943;-84
2021/07/07 12:52:36;;;;;;;3.13;2.60;;;21.70;45.50;;;;;;4773554;30;20210;-81
2021/07/07 12:55:10;;;;;;;2.70;2.60;;;21.70;45.50;;;;;;4772090;29;20224;-82
2021/07/07 12:57:59;;;;;;;2.50;2.40;;;21.70;45.50;;;;;;4807293;29;20537;-82